Alexander City, AL

11:57 PM CDT on July 23, 2016 (GMT -0500)
Russell | | Change Station

Elev 686 ft 32.91 °N, 85.96 °W | Updated 22 minutes ago

Clear
Clear
79 °F
Feels Like 79 °F
N
0
Wind Variable Wind from North

Today
High -- | Low -- °F
--% Chance of Precip.
Yesterday
High -- | Low -- °F
Precip. -- in
Pressure 30.01 in
Visibility 10.0 miles
Clouds Clear
Dew Point 78 °F
Humidity 98%
Rainfall 0.00 in
Snow Depth Not available.
5:51 AM 7:48 PM
Waning Gibbous, 79% visible
METAR KALX 240435Z AUTO 00000KT 10SM CLR 26/26 A3001 RMK AO2 T02600256
Pressure 30.01 in
Visibility 10.0 miles
Clouds Clear
Dew Point 78 °F
Humidity 98%
Rainfall 0.00 in
Snow Depth Not available.
5:51 AM 7:48 PM
Waning Gibbous, 79% visible
METAR KALX 240435Z AUTO 00000KT 10SM CLR 26/26 A3001 RMK AO2 T02600256

10-Day Weather Forecast

Almanac

Astronomy

Jul. 23, 2016 Rise Set
Actual Time
Civil Twilight
Nautical Twilight
Astronomical Twilight
Moon
Length of Visible Light
Length of Day
Tomorrow will be .
, % of the Moon is Illuminated

Today's Extremes

State Highs State Lows

Community

WunderPhotos

Upload Photos

1,927,030 photos uploaded!

WunderBlog® & News

Nearby

Air Quality

  Air Quality AQ Index Pollutant
Not available.

Snow Depth

Station Depth Elevation

Earthquake Activity

City Distance Mag. Time & Date
Minimum magnitude displayed is 2.5.

Coastal Water Temperatures

Place Temperature

Stations

Nearby Weather Stations

Station Location Temp. Windchill Dew Point Humidity Wind Precip. Elev Updated Type
                   

Watches & Warnings

There are currently no watches in effect.